Aberdeen, North Carolina
Current Conditions -  °F | °C
As of 3:35 PM on Saturday 20 Dec 2014 (Local Time) from KSOP Reporting Station
Overcast Overcast  
Wind Chill: 36°   Ceiling: 3200
Heat Index: 39°   Visibility: 10mi
Dew Point: 34°   Wind: 5mph
Humidity: 81%   Direction: 50°NE
Pressure: 30.24"   Gusts: NA
Location:  35.13°N, 79.43°W
Report Text: KSOP 202035Z AUTO 05004KT 10SM SCT009 OVC032 04/01 A3024 RMK AO1
Loading
Personal Weather Stations






























Interactive Weather Map New forecast layout! Learn more

10-Day Weather Forecast

Advertisements
Track Severe Weather on mobile